createdAt,value
2019-02-14T00:00:48.930Z,50.57
2019-02-14T00:03:17.478Z,49.47
2019-02-14T00:05:46.025Z,48.53
2019-02-14T00:08:14.521Z,43.83
2019-02-14T00:10:42.993Z,49.63
2019-02-14T00:13:11.462Z,49.60
2019-02-14T00:15:40.043Z,49.13
2019-02-14T00:18:08.658Z,45.93
2019-02-14T00:20:37.340Z,47.63
2019-02-14T00:23:05.850Z,51.00
2019-02-14T00:25:34.394Z,48.07
2019-02-14T00:28:02.934Z,45.53
2019-02-14T00:30:31.589Z,51.00
2019-02-14T00:33:00.135Z,48.10
2019-02-14T00:35:28.677Z,47.20
2019-02-14T00:37:57.177Z,47.83
2019-02-14T00:40:25.787Z,49.97
2019-02-14T00:42:54.338Z,44.83
2019-02-14T00:45:22.914Z,51.03
2019-02-14T00:47:51.603Z,44.47
2019-02-14T00:50:20.153Z,47.67
2019-02-14T00:52:48.729Z,50.97
2019-02-14T00:55:18.695Z,50.07
2019-02-14T00:57:47.244Z,46.90
2019-02-14T01:00:16.029Z,47.50
2019-02-14T01:02:44.642Z,48.37
2019-02-14T01:05:13.177Z,48.77
2019-02-14T01:07:41.818Z,50.60
2019-02-14T01:10:10.447Z,46.23
2019-02-14T01:12:38.980Z,49.13
2019-02-14T01:15:09.913Z,45.67
2019-02-14T01:17:38.459Z,46.43
2019-02-14T01:20:07.540Z,43.37
2019-02-14T01:22:36.032Z,50.27
2019-02-14T01:25:05.513Z,43.40
2019-02-14T01:27:33.990Z,52.07
2019-02-14T01:30:02.698Z,47.27
2019-02-14T01:32:31.241Z,44.47
2019-02-14T01:34:59.786Z,45.03
2019-02-14T01:37:28.471Z,43.77
2019-02-14T01:39:57.017Z,43.23
2019-02-14T01:42:25.566Z,47.83
2019-02-14T01:44:54.158Z,47.60
2019-02-14T01:47:22.766Z,49.70
2019-02-14T01:49:51.381Z,48.57
2019-02-14T01:52:19.962Z,46.10
2019-02-14T01:54:48.520Z,48.80
2019-02-14T01:57:16.990Z,48.53
2019-02-14T01:59:45.501Z,44.30
2019-02-14T02:02:14.046Z,44.37
2019-02-14T02:04:42.662Z,47.10
2019-02-14T02:07:11.241Z,50.50
2019-02-14T02:09:39.713Z,52.27
2019-02-14T02:12:08.405Z,50.10
2019-02-14T02:14:37.046Z,50.20
2019-02-14T02:17:05.658Z,45.97
2019-02-14T02:19:34.205Z,49.93
2019-02-14T02:22:02.942Z,56.83
2019-02-14T02:24:31.553Z,49.93
2019-02-14T02:27:00.094Z,56.73
2019-02-14T02:29:28.737Z,55.77
2019-02-14T02:31:57.295Z,53.80
2019-02-14T02:34:25.826Z,52.50
2019-02-14T02:36:54.397Z,60.23
2019-02-14T02:39:22.862Z,57.03
2019-02-14T02:41:51.407Z,56.90
2019-02-14T02:44:20.061Z,52.67
2019-02-14T02:46:48.610Z,54.83
2019-02-14T02:49:17.157Z,52.10
2019-02-14T02:51:45.815Z,54.73
2019-02-14T02:54:14.434Z,55.50
2019-02-14T02:56:43.012Z,56.10
2019-02-14T02:59:11.733Z,57.67
2019-02-14T03:01:40.205Z,59.23
2019-02-14T03:04:08.747Z,57.50
2019-02-14T03:06:37.397Z,56.03
2019-02-14T03:09:06.083Z,58.20
2019-02-14T03:11:34.631Z,60.17
2019-02-14T03:14:03.202Z,58.10
2019-02-14T03:16:31.747Z,55.67
2019-02-14T03:19:00.288Z,57.23
2019-02-14T03:21:28.897Z,56.70
2019-02-14T03:23:57.441Z,54.57
2019-02-14T03:26:26.126Z,61.83
2019-02-14T03:28:54.623Z,66.70
2019-02-14T03:31:23.172Z,59.83
2019-02-14T03:33:51.710Z,58.83
2019-02-14T03:36:20.327Z,65.17
2019-02-14T03:38:49.874Z,61.30
2019-02-14T03:41:18.498Z,60.87
2019-02-14T03:43:48.015Z,63.70
2019-02-14T03:46:16.558Z,59.13
2019-02-14T03:48:45.173Z,60.60
2019-02-14T03:51:13.836Z,60.10
2019-02-14T03:53:44.244Z,67.97
2019-02-14T03:56:12.498Z,65.83
2019-02-14T03:58:41.067Z,61.83
2019-02-14T04:01:09.612Z,61.20
2019-02-14T04:03:38.161Z,67.10
2019-02-14T04:06:06.739Z,65.03
2019-02-14T04:08:35.349Z,61.30
2019-02-14T04:11:03.886Z,66.97
2019-02-14T04:13:32.385Z,69.73
2019-02-14T04:16:01.325Z,72.67
2019-02-14T04:18:29.869Z,69.53
2019-02-14T04:20:58.465Z,70.13
2019-02-14T04:23:27.014Z,67.50
2019-02-14T04:25:55.561Z,76.60
2019-02-14T04:28:24.138Z,71.13
2019-02-14T04:30:52.681Z,68.90
2019-02-14T04:33:21.229Z,72.67
2019-02-14T04:35:49.802Z,73.57
2019-02-14T04:38:18.345Z,65.70
2019-02-14T04:40:46.819Z,75.83
2019-02-14T04:43:15.390Z,78.97
2019-02-14T04:45:44.083Z,81.67
2019-02-14T04:48:12.633Z,83.07
2019-02-14T04:50:41.137Z,84.63
2019-02-14T04:53:09.610Z,89.13
2019-02-14T04:55:39.162Z,94.87
2019-02-14T04:58:07.738Z,85.57
2019-02-14T05:00:36.378Z,84.67
2019-02-14T05:03:04.989Z,83.93
2019-02-14T05:05:33.497Z,89.30
2019-02-14T05:08:02.038Z,92.00
2019-02-14T05:10:30.582Z,90.93
2019-02-14T05:12:59.177Z,93.20
2019-02-14T05:15:27.721Z,91.57
2019-02-14T05:17:56.297Z,94.30
2019-02-14T05:20:24.866Z,90.93
2019-02-14T05:22:53.413Z,92.87
2019-02-14T05:25:21.957Z,95.40
2019-02-14T05:27:50.458Z,96.17
2019-02-14T05:30:19.175Z,91.77
2019-02-14T05:32:47.790Z,100.80
2019-02-14T05:35:16.294Z,105.70
2019-02-14T05:37:44.846Z,103.83
2019-02-14T05:40:13.494Z,103.20
2019-02-14T05:42:42.069Z,109.97
2019-02-14T05:45:12.261Z,109.57
2019-02-14T05:47:40.815Z,106.53
2019-02-14T05:50:14.073Z,103.73
2019-02-14T05:52:42.553Z,110.20
2019-02-14T05:55:13.144Z,106.57
2019-02-14T05:57:43.921Z,103.67
2019-02-14T06:00:15.645Z,105.70
2019-02-14T06:02:44.330Z,109.20
2019-02-14T06:05:13.053Z,114.17
2019-02-14T06:07:41.597Z,110.33
2019-02-14T06:10:11.486Z,111.50
2019-02-14T06:12:40.074Z,107.07
2019-02-14T06:15:10.664Z,122.30
2019-02-14T06:17:39.205Z,121.00
2019-02-14T06:20:09.824Z,105.30
2019-02-14T06:22:38.507Z,98.70
2019-02-14T06:25:08.704Z,104.27
2019-02-14T06:27:37.338Z,107.07
2019-02-14T06:30:08.893Z,111.63
2019-02-14T06:32:37.437Z,108.37
2019-02-14T06:35:07.461Z,108.70
2019-02-14T06:37:36.029Z,106.73
2019-02-14T06:40:07.521Z,113.87
2019-02-14T06:42:36.158Z,104.10
2019-02-14T06:45:07.069Z,105.47
2019-02-14T06:47:35.558Z,111.33
2019-02-14T06:50:04.793Z,106.50
2019-02-14T06:52:33.261Z,113.90
2019-02-14T06:55:01.734Z,126.17
2019-02-14T06:57:30.309Z,119.70
2019-02-14T06:59:58.854Z,108.63
2019-02-14T07:02:27.461Z,118.70
2019-02-14T07:04:56.041Z,116.87
2019-02-14T07:07:24.515Z,99.33
2019-02-14T07:09:53.068Z,110.83
2019-02-14T07:12:21.642Z,111.00
2019-02-14T07:14:50.110Z,106.80
2019-02-14T07:17:18.584Z,109.37
2019-02-14T07:19:47.158Z,106.10
2019-02-14T07:22:15.701Z,102.57
2019-02-14T07:24:44.169Z,120.23
2019-02-14T07:27:12.678Z,107.57
2019-02-14T07:29:41.220Z,108.47
2019-02-14T07:32:09.761Z,107.60
2019-02-14T07:34:38.270Z,95.53
2019-02-14T07:37:06.816Z,94.90
2019-02-14T07:39:35.358Z,92.37
2019-02-14T07:42:04.078Z,83.73
2019-02-14T07:44:32.685Z,80.83
2019-02-14T07:47:01.158Z,83.30
2019-02-14T07:49:29.881Z,80.07
2019-02-14T07:51:58.351Z,79.20
2019-02-14T07:54:26.895Z,78.30
2019-02-14T07:56:55.489Z,78.80
2019-02-14T07:59:24.090Z,83.30
2019-02-14T08:01:52.631Z,81.13
2019-02-14T08:04:21.181Z,119.17
2019-02-14T08:06:49.745Z,80.47
2019-02-14T08:09:18.205Z,86.77
2019-02-14T08:11:46.676Z,72.17
2019-02-14T08:14:15.249Z,76.47
2019-02-14T08:16:43.723Z,74.57
2019-02-14T08:19:12.329Z,70.23
2019-02-14T08:21:40.834Z,68.53
2019-02-14T08:24:09.377Z,73.83
2019-02-14T08:26:37.924Z,68.83
2019-02-14T08:29:06.513Z,69.43
2019-02-14T08:31:34.982Z,62.80
2019-02-14T08:34:03.449Z,64.00
2019-02-14T08:36:31.949Z,64.03
2019-02-14T08:39:00.418Z,62.43
2019-02-14T08:41:29.030Z,58.67
2019-02-14T08:43:57.605Z,129.43
2019-02-14T08:46:26.074Z,65.47
2019-02-14T08:48:54.616Z,62.90
2019-02-14T08:51:23.110Z,59.10
2019-02-14T08:53:51.579Z,61.37
2019-02-14T08:56:20.050Z,59.67
2019-02-14T08:58:48.620Z,59.60
2019-02-14T09:01:17.237Z,66.90
2019-02-14T09:03:45.781Z,77.50
2019-02-14T09:06:14.351Z,67.33
2019-02-14T09:08:42.897Z,66.73
2019-02-14T09:11:11.516Z,65.50
2019-02-14T09:13:40.089Z,62.83
2019-02-14T09:16:08.630Z,66.90
2019-02-14T09:18:37.174Z,62.27
2019-02-14T09:21:05.817Z,62.53
2019-02-14T09:23:34.354Z,57.83
2019-02-14T09:26:02.967Z,59.40
2019-02-14T09:28:31.689Z,59.90
2019-02-14T09:31:00.232Z,57.03
2019-02-14T09:33:28.770Z,51.07
2019-02-14T09:35:57.369Z,48.23
2019-02-14T09:38:25.843Z,46.00
2019-02-14T09:40:54.384Z,45.50
2019-02-14T09:43:29.633Z,44.97
2019-02-14T09:45:53.145Z,45.73
2019-02-14T09:48:21.758Z,46.10
2019-02-14T09:50:50.398Z,40.60
2019-02-14T09:53:18.942Z,38.80
2019-02-14T09:55:47.485Z,34.63
2019-02-14T09:58:16.123Z,36.13
2019-02-14T10:00:44.688Z,34.90
2019-02-14T10:03:13.223Z,32.33
2019-02-14T10:05:41.876Z,30.73
2019-02-14T10:08:12.734Z,26.90
2019-02-14T10:10:41.679Z,26.87
2019-02-14T10:13:10.249Z,27.33
2019-02-14T10:15:38.790Z,30.43
2019-02-14T10:18:07.397Z,27.40
2019-02-14T10:20:35.935Z,29.37
2019-02-14T10:23:04.460Z,30.07
2019-02-14T10:25:33.300Z,29.47
2019-02-14T10:28:01.847Z,30.07
2019-02-14T10:30:30.461Z,27.23
2019-02-14T10:32:59.001Z,31.43
2019-02-14T10:35:27.582Z,32.40
2019-02-14T10:37:56.056Z,31.87
2019-02-14T10:40:24.665Z,31.03
2019-02-14T10:42:53.177Z,29.00
2019-02-14T10:45:23.070Z,30.77
2019-02-14T10:47:51.674Z,31.77
2019-02-14T10:50:20.313Z,30.63
2019-02-14T10:52:48.932Z,33.17
2019-02-14T10:55:17.605Z,34.87
2019-02-14T10:57:46.177Z,31.27
2019-02-14T11:00:17.796Z,32.07
2019-02-14T11:02:46.974Z,30.40
2019-02-14T11:05:16.280Z,34.40
2019-02-14T11:07:44.841Z,32.20
2019-02-14T11:10:14.650Z,35.27
2019-02-14T11:12:43.341Z,32.60
2019-02-14T11:15:14.542Z,34.93
2019-02-14T11:17:43.097Z,31.03
2019-02-14T11:20:13.577Z,33.50
2019-02-14T11:22:42.388Z,29.77
2019-02-14T11:25:28.577Z,32.13
2019-02-14T11:27:57.080Z,35.40
2019-02-14T11:30:25.621Z,33.30
2019-02-14T11:32:54.094Z,30.03
2019-02-14T11:35:22.737Z,29.47
2019-02-14T11:37:51.210Z,30.03
2019-02-14T11:40:19.821Z,27.03
2019-02-14T11:42:48.389Z,27.80
2019-02-14T11:45:19.198Z,28.53
2019-02-14T11:47:47.877Z,32.57
2019-02-14T11:50:16.797Z,30.37
2019-02-14T11:52:45.341Z,31.30
2019-02-14T11:55:13.954Z,32.60
2019-02-14T11:57:42.670Z,33.07
2019-02-14T12:00:20.540Z,38.40
2019-02-14T12:02:55.007Z,37.20
2019-02-14T12:05:19.441Z,35.37
2019-02-14T12:07:48.065Z,37.33
2019-02-14T12:10:16.702Z,36.27
2019-02-14T12:12:45.177Z,32.97
2019-02-14T12:15:14.363Z,32.53
2019-02-14T12:17:42.971Z,33.33
2019-02-14T12:20:15.418Z,29.67
2019-02-14T12:22:46.656Z,30.80
2019-02-14T12:25:19.853Z,57.47
2019-02-14T12:27:48.393Z,32.17
2019-02-14T12:30:16.934Z,35.00
2019-02-14T12:32:45.509Z,30.73
2019-02-14T12:35:14.120Z,31.23
2019-02-14T12:37:42.665Z,29.80
2019-02-14T12:40:12.742Z,36.33
2019-02-14T12:42:41.281Z,52.53
2019-02-14T12:45:20.512Z,46.47
2019-02-14T12:47:45.650Z,38.27
2019-02-14T12:50:14.332Z,68.33
2019-02-14T12:52:42.941Z,51.70
2019-02-14T12:55:11.654Z,65.23
2019-02-14T12:57:40.332Z,53.80
2019-02-14T13:00:12.177Z,56.30
2019-02-14T13:02:40.753Z,45.50
2019-02-14T13:05:09.537Z,47.33
2019-02-14T13:07:38.077Z,39.93
2019-02-14T13:10:09.753Z,38.43
2019-02-14T13:12:38.368Z,52.93
2019-02-14T13:15:12.353Z,41.30
2019-02-14T13:17:40.949Z,43.33
2019-02-14T13:20:09.805Z,60.07
2019-02-14T13:22:38.345Z,45.67
2019-02-14T13:25:09.430Z,66.90
2019-02-14T13:27:37.931Z,63.23
2019-02-14T13:30:15.406Z,52.43
2019-02-14T13:32:44.078Z,55.77
2019-02-14T13:35:13.063Z,51.93
2019-02-14T13:37:41.706Z,41.57
2019-02-14T13:40:10.386Z,43.83
2019-02-14T13:42:38.934Z,42.27
2019-02-14T13:45:10.542Z,35.57
2019-02-14T13:47:39.414Z,34.67
2019-02-14T13:50:10.382Z,43.70
2019-02-14T13:52:39.102Z,40.47
2019-02-14T13:55:09.489Z,37.87
2019-02-14T13:57:38.203Z,42.93
2019-02-14T14:00:18.813Z,39.93
2019-02-14T14:02:47.442Z,50.03
2019-02-14T14:05:16.087Z,44.83
2019-02-14T14:07:44.668Z,40.83
2019-02-14T14:10:13.364Z,48.80
2019-02-14T14:12:42.495Z,46.30
2019-02-14T14:15:12.102Z,45.63
2019-02-14T14:17:40.736Z,53.80
2019-02-14T14:20:09.814Z,75.17
2019-02-14T14:22:38.401Z,62.23
2019-02-14T14:25:08.964Z,67.07
2019-02-14T14:27:37.782Z,67.13
2019-02-14T14:30:09.275Z,57.57
2019-02-14T14:32:37.895Z,56.90
2019-02-14T14:35:08.194Z,49.87
2019-02-14T14:37:38.490Z,44.43
2019-02-14T14:40:10.174Z,45.13
2019-02-14T14:42:52.281Z,56.10
2019-02-14T14:45:25.588Z,41.73
2019-02-14T14:47:54.210Z,49.57
2019-02-14T14:50:22.902Z,50.93
2019-02-14T14:52:51.527Z,47.67
2019-02-14T14:55:20.082Z,44.27
2019-02-14T14:57:48.754Z,39.70
2019-02-14T15:00:17.547Z,44.77
2019-02-14T15:02:46.090Z,47.80
2019-02-14T15:05:14.847Z,43.73
2019-02-14T15:07:43.484Z,47.13
2019-02-14T15:10:12.089Z,52.30
2019-02-14T15:12:40.752Z,62.37
2019-02-14T15:15:09.442Z,54.83
2019-02-14T15:17:38.001Z,47.33
2019-02-14T15:20:09.509Z,72.17
2019-02-14T15:22:38.209Z,61.50
2019-02-14T15:25:07.413Z,52.23
2019-02-14T15:27:35.975Z,49.37
2019-02-14T15:30:05.563Z,48.87
2019-02-14T15:32:34.262Z,54.67
2019-02-14T15:35:02.897Z,44.80
2019-02-14T15:37:31.450Z,50.23
2019-02-14T15:40:08.555Z,49.53
2019-02-14T15:42:30.297Z,55.33
2019-02-14T15:44:58.856Z,46.10
2019-02-14T15:47:27.407Z,59.87
2019-02-14T15:49:56.069Z,56.20
2019-02-14T15:52:24.700Z,63.53
2019-02-14T15:54:53.242Z,53.03
2019-02-14T15:57:21.835Z,64.87
2019-02-14T15:59:50.524Z,58.80
2019-02-14T16:02:19.246Z,57.40
2019-02-14T16:04:47.814Z,66.03
2019-02-14T16:07:17.558Z,64.90
2019-02-14T16:09:46.293Z,60.50
2019-02-14T16:12:14.898Z,62.33
2019-02-14T16:14:44.833Z,59.40
2019-02-14T16:17:13.799Z,54.47
2019-02-14T16:19:42.536Z,54.97
2019-02-14T16:22:11.186Z,59.30
2019-02-14T16:24:41.285Z,52.53
2019-02-14T16:27:10.155Z,55.10
2019-02-14T16:29:38.774Z,66.13
2019-02-14T16:32:07.361Z,74.17
2019-02-14T16:34:36.233Z,73.30
2019-02-14T16:37:05.160Z,70.93
2019-02-14T16:39:33.850Z,59.60
2019-02-14T16:42:02.440Z,62.07
2019-02-14T16:44:31.066Z,60.70
2019-02-14T16:46:59.682Z,70.33
2019-02-14T16:49:28.473Z,112.40
2019-02-14T16:51:57.102Z,97.93
2019-02-14T16:54:25.730Z,88.13
2019-02-14T16:56:54.630Z,83.43
2019-02-14T16:59:23.276Z,66.90
2019-02-14T17:01:51.897Z,64.40
2019-02-14T17:04:20.563Z,58.83
2019-02-14T17:06:49.275Z,63.37
2019-02-14T17:09:17.831Z,63.40
2019-02-14T17:11:46.496Z,69.87
2019-02-14T17:14:15.097Z,63.67
2019-02-14T17:16:43.592Z,67.40
2019-02-14T17:19:12.158Z,68.33
2019-02-14T17:21:40.706Z,66.53
2019-02-14T17:24:09.255Z,63.37
2019-02-14T17:26:37.971Z,63.03
2019-02-14T17:29:06.553Z,56.80
2019-02-14T17:31:35.093Z,64.07
2019-02-14T17:34:03.698Z,65.83
2019-02-14T17:36:32.507Z,64.57
2019-02-14T17:39:01.051Z,63.50
2019-02-14T17:41:29.685Z,63.37
2019-02-14T17:43:58.362Z,73.67
2019-02-14T17:46:26.906Z,61.83
2019-02-14T17:48:55.556Z,57.77
2019-02-14T17:51:24.097Z,64.53
2019-02-14T17:53:52.818Z,60.07
2019-02-14T17:56:21.320Z,72.33
2019-02-14T17:58:49.789Z,68.80
2019-02-14T18:01:18.328Z,73.87
2019-02-14T18:03:46.825Z,95.57
2019-02-14T18:06:15.361Z,93.50
2019-02-14T18:08:43.831Z,103.70
2019-02-14T18:11:12.441Z,106.17
2019-02-14T18:13:40.964Z,96.30
2019-02-14T18:16:09.522Z,108.67
2019-02-14T18:18:38.112Z,98.87
2019-02-14T18:21:06.793Z,104.43
2019-02-14T18:23:35.335Z,98.77
2019-02-14T18:26:04.065Z,92.83
2019-02-14T18:28:32.782Z,90.53
2019-02-14T18:31:01.411Z,92.60
2019-02-14T18:33:30.201Z,91.07
2019-02-14T18:35:58.750Z,81.10
2019-02-14T18:38:27.379Z,85.63
2019-02-14T18:41:03.876Z,85.50
2019-02-14T18:43:26.341Z,91.73
2019-02-14T18:45:54.915Z,111.77
2019-02-14T18:48:23.585Z,87.20
2019-02-14T18:50:52.216Z,74.00
2019-02-14T18:53:20.862Z,67.67
2019-02-14T18:55:49.486Z,67.93
2019-02-14T18:58:26.150Z,72.43
2019-02-14T19:00:48.455Z,70.60
2019-02-14T19:03:17.048Z,69.23
2019-02-14T19:05:45.645Z,75.10
2019-02-14T19:08:14.282Z,77.57
2019-02-14T19:10:42.820Z,76.60
2019-02-14T19:13:11.480Z,82.83
2019-02-14T19:15:40.098Z,71.40
2019-02-14T19:18:08.669Z,70.27
2019-02-14T19:20:37.384Z,68.47
2019-02-14T19:23:05.999Z,74.50
2019-02-14T19:25:34.620Z,75.43
2019-02-14T19:28:03.434Z,70.40
2019-02-14T19:30:31.942Z,75.83
2019-02-14T19:33:00.504Z,84.23
2019-02-14T19:35:29.095Z,69.13
2019-02-14T19:37:57.642Z,67.93
2019-02-14T19:40:26.262Z,64.70
2019-02-14T19:42:54.942Z,64.83
2019-02-14T19:45:23.559Z,60.97
2019-02-14T19:47:52.107Z,63.90
2019-02-14T19:50:20.692Z,70.63
2019-02-14T19:52:49.297Z,64.63
2019-02-14T19:55:17.870Z,61.80
2019-02-14T19:57:46.457Z,64.03
2019-02-14T20:00:15.532Z,65.50
2019-02-14T20:02:44.243Z,68.43
2019-02-14T20:05:12.938Z,62.70
2019-02-14T20:07:41.573Z,70.43
2019-02-14T20:10:11.858Z,78.93
2019-02-14T20:12:40.520Z,68.23
2019-02-14T20:15:21.200Z,71.47
2019-02-14T20:17:49.741Z,58.10
2019-02-14T20:20:18.205Z,69.90
2019-02-14T20:22:46.786Z,65.10
2019-02-14T20:25:23.877Z,65.50
2019-02-14T20:27:52.683Z,53.60
2019-02-14T20:30:21.245Z,60.50
2019-02-14T20:32:49.859Z,66.83
2019-02-14T20:35:18.505Z,62.07
2019-02-14T20:37:48.050Z,68.40
2019-02-14T20:40:16.624Z,63.00
2019-02-14T20:42:45.263Z,62.57
2019-02-14T20:45:14.746Z,66.90
2019-02-14T20:47:43.284Z,63.00
2019-02-14T20:50:13.397Z,61.03
2019-02-14T20:52:42.084Z,73.60
2019-02-14T20:55:13.729Z,62.33
2019-02-14T20:57:42.369Z,67.27
2019-02-14T21:00:29.814Z,66.70
2019-02-14T21:02:58.530Z,58.87
2019-02-14T21:05:27.145Z,78.33
2019-02-14T21:07:55.685Z,112.57
2019-02-14T21:10:24.193Z,83.40
2019-02-14T21:12:52.731Z,70.67
2019-02-14T21:15:21.341Z,73.07
2019-02-14T21:17:49.909Z,74.27
2019-02-14T21:20:18.517Z,66.07
2019-02-14T21:22:46.985Z,72.07
2019-02-14T21:25:15.563Z,77.10
2019-02-14T21:27:44.107Z,64.00
2019-02-14T21:30:15.719Z,70.30
2019-02-14T21:32:45.761Z,59.47
2019-02-14T21:35:14.451Z,61.80
2019-02-14T21:37:43.071Z,68.80
2019-02-14T21:40:14.238Z,58.90
2019-02-14T21:42:42.898Z,58.97
2019-02-14T21:45:13.701Z,55.70
2019-02-14T21:47:42.367Z,66.17
2019-02-14T21:50:12.069Z,95.47
2019-02-14T21:52:42.155Z,106.00
2019-02-14T21:55:12.259Z,93.93
2019-02-14T21:57:40.880Z,90.63
2019-02-14T22:00:15.416Z,81.93
2019-02-14T22:02:44.225Z,73.50
2019-02-14T22:05:12.882Z,63.63
2019-02-14T22:07:41.505Z,65.33
2019-02-14T22:10:12.371Z,61.80
2019-02-14T22:12:42.671Z,68.40
2019-02-14T22:15:17.065Z,69.47
2019-02-14T22:17:45.619Z,74.03
2019-02-14T22:20:14.225Z,80.20
2019-02-14T22:22:42.877Z,71.00
2019-02-14T22:25:11.534Z,67.80
2019-02-14T22:27:40.516Z,69.57
2019-02-14T22:30:15.293Z,67.83
2019-02-14T22:32:44.603Z,70.03
2019-02-14T22:35:13.585Z,61.40
2019-02-14T22:37:42.201Z,71.90
2019-02-14T22:40:11.813Z,69.90
2019-02-14T22:42:46.576Z,65.47
2019-02-14T22:45:13.565Z,74.47
2019-02-14T22:47:43.464Z,70.40
2019-02-14T22:50:12.656Z,79.87
2019-02-14T22:52:41.298Z,68.90
2019-02-14T22:55:10.904Z,71.07
2019-02-14T22:57:39.646Z,67.70
2019-02-14T23:00:27.615Z,66.27
2019-02-14T23:02:56.234Z,58.87
2019-02-14T23:05:24.919Z,59.27
2019-02-14T23:07:53.495Z,62.80
2019-02-14T23:10:22.105Z,66.60
2019-02-14T23:12:55.673Z,63.07
2019-02-14T23:15:20.937Z,64.60
2019-02-14T23:17:49.546Z,65.33
2019-02-14T23:20:18.356Z,69.33
2019-02-14T23:22:46.854Z,59.80
2019-02-14T23:25:15.398Z,64.43
2019-02-14T23:27:44.057Z,63.70
2019-02-14T23:30:13.001Z,64.80
2019-02-14T23:32:41.544Z,63.27
2019-02-14T23:35:10.221Z,64.87
2019-02-14T23:37:38.862Z,60.33
2019-02-14T23:40:08.283Z,62.83
2019-02-14T23:42:36.880Z,67.80
2019-02-14T23:45:09.293Z,62.33
2019-02-14T23:47:37.978Z,66.27
2019-02-14T23:50:09.845Z,62.63
2019-02-14T23:52:38.338Z,65.90
2019-02-14T23:55:08.413Z,65.67
2019-02-14T23:57:36.872Z,63.00
